Time;durP1;ratioP1;P1;durP2;ratioP2;P2;SDS_P1;SDS_P2;PMS_P1;PMS_P2;Temp;Humidity;BMP_temperature;BMP_pressure;BME280_temperature;BME280_humidity;BME280_pressure;Samples;Min_cycle;Max_cycle;Signal;HPM_P1;HPM_P2
2021/12/20 00:00:24;;;;;;;1.90;1.80;;;22.10;47.80;;;;;;5012129;28;20542;-71
2021/12/20 00:02:59;;;;;;;2.22;2.03;;;22.10;46.40;;;;;;5011097;28;20189;-71
2021/12/20 00:05:25;;;;;;;2.42;2.22;;;22.10;47.50;;;;;;5027147;28;20712;-71
2021/12/20 00:07:51;;;;;;;2.10;2.00;;;22.10;47.60;;;;;;5011436;28;20199;-71
2021/12/20 00:10:19;;;;;;;2.20;2.00;;;22.10;46.50;;;;;;4994264;28;20184;-71
2021/12/20 00:12:46;;;;;;;2.25;1.90;;;22.10;47.30;;;;;;4990159;28;20197;-71
2021/12/20 00:15:12;;;;;;;2.13;1.88;;;22.10;46.70;;;;;;4990992;28;20203;-71
2021/12/20 00:17:38;;;;;;;2.00;1.90;;;22.10;48.30;;;;;;4990529;28;20214;-70
2021/12/20 00:20:05;;;;;;;1.98;1.85;;;22.10;52.20;;;;;;4990934;28;20193;-71
2021/12/20 00:22:31;;;;;;;2.15;1.95;;;22.10;48.60;;;;;;4992191;28;20185;-71
2021/12/20 00:24:57;;;;;;;2.00;1.90;;;22.10;50.00;;;;;;4974785;28;20204;-71
2021/12/20 00:27:22;;;;;;;2.00;1.90;;;22.10;50.80;;;;;;4990546;28;20284;-71
2021/12/20 00:29:50;;;;;;;2.70;2.10;;;22.10;50.90;;;;;;4990936;28;20211;-71
2021/12/20 00:32:17;;;;;;;2.53;2.33;;;22.10;51.10;;;;;;5007256;28;20264;-71
2021/12/20 00:34:45;;;;;;;2.25;2.05;;;22.10;49.20;;;;;;4974735;28;20311;-71
2021/12/20 00:42:43;;;;;;;2.80;2.60;;;22.10;47.30;;;;;;4990587;28;20670;-70
2021/12/20 00:45:11;;;;;;;2.60;2.40;;;22.10;50.50;;;;;;4990634;28;20205;-71
2021/12/20 00:47:39;;;;;;;2.53;2.33;;;22.10;50.40;;;;;;4991243;28;20201;-71
2021/12/20 00:50:08;;;;;;;2.30;2.10;;;22.10;49.50;;;;;;4990551;28;20193;-71
2021/12/20 00:52:34;;;;;;;2.50;2.30;;;22.10;47.60;;;;;;4974643;28;20196;-70
2021/12/20 00:55:00;;;;;;;2.72;2.53;;;22.10;48.00;;;;;;4974304;28;20197;-71
2021/12/20 00:57:26;;;;;;;2.70;2.50;;;22.10;47.70;;;;;;4990325;28;20219;-71
2021/12/20 00:59:52;;;;;;;2.40;2.20;;;22.10;45.40;;;;;;4974336;28;20693;-71
2021/12/20 01:02:18;;;;;;;2.38;2.17;;;22.10;45.40;;;;;;4990460;28;20188;-71
2021/12/20 01:04:44;;;;;;;2.65;2.45;;;22.10;45.40;;;;;;4990336;28;20213;-71
2021/12/20 01:07:10;;;;;;;2.65;2.45;;;22.10;45.50;;;;;;4990404;28;20200;-70
2021/12/20 01:09:37;;;;;;;2.42;2.22;;;22.00;45.40;;;;;;4990113;28;20177;-70
2021/12/20 01:12:06;;;;;;;2.70;2.50;;;22.10;45.40;;;;;;4988475;28;20199;-71
2021/12/20 01:14:36;;;;;;;2.60;2.40;;;22.10;45.40;;;;;;5009925;28;20203;-71
2021/12/20 01:17:06;;;;;;;2.90;2.70;;;22.10;45.40;;;;;;5010909;28;20211;-71
2021/12/20 01:19:34;;;;;;;2.83;2.63;;;22.10;45.40;;;;;;5009598;28;20246;-70
2021/12/20 01:22:04;;;;;;;2.60;2.40;;;22.10;45.40;;;;;;5010074;28;20290;-71
2021/12/20 01:24:30;;;;;;;2.72;2.53;;;22.10;45.40;;;;;;5012166;28;20275;-70
2021/12/20 01:26:56;;;;;;;2.90;2.70;;;22.10;45.40;;;;;;5013678;28;20223;-70
2021/12/20 01:29:23;;;;;;;3.33;3.03;;;22.10;45.40;;;;;;4996958;28;20192;-70
2021/12/20 01:31:50;;;;;;;2.88;2.58;;;22.10;45.40;;;;;;4997002;28;20196;-70
2021/12/20 01:34:16;;;;;;;2.72;2.50;;;22.10;45.30;;;;;;5014685;28;20184;-71
2021/12/20 01:36:42;;;;;;;2.78;2.58;;;22.10;45.30;;;;;;5014615;28;20243;-71
2021/12/20 01:39:08;;;;;;;2.50;2.30;;;22.10;45.40;;;;;;4996749;28;20249;-70
2021/12/20 01:41:41;;;;;;;2.80;2.60;;;22.10;45.40;;;;;;4997115;28;20192;-70
2021/12/20 01:44:07;;;;;;;2.50;2.30;;;22.10;45.40;;;;;;5013355;28;20203;-70
2021/12/20 01:46:34;;;;;;;2.78;2.58;;;22.10;45.40;;;;;;5013199;28;20239;-71
2021/12/20 01:49:01;;;;;;;2.72;2.53;;;22.10;45.40;;;;;;5013076;28;20646;-70
2021/12/20 01:54:03;;;;;;;2.60;2.40;;;22.10;45.40;;;;;;5015107;28;20195;-71
2021/12/20 01:56:32;;;;;;;2.72;2.53;;;22.20;45.40;;;;;;4997486;28;20207;-71
2021/12/20 01:59:03;;;;;;;2.78;2.58;;;22.10;45.30;;;;;;5012869;28;20278;-71
2021/12/20 02:01:29;;;;;;;2.80;2.60;;;22.10;45.30;;;;;;5013287;28;20188;-71
2021/12/20 02:03:59;;;;;;;3.08;2.88;;;22.10;45.30;;;;;;5013363;28;20276;-71
2021/12/20 02:06:41;;;;;;;2.95;2.70;;;22.10;45.30;;;;;;5013459;28;20582;-71
2021/12/20 02:09:14;;;;;;;3.05;2.80;;;22.10;45.30;;;;;;5012978;28;20196;-71
2021/12/20 02:11:45;;;;;;;2.60;2.40;;;22.10;45.30;;;;;;5012782;28;20184;-70
2021/12/20 02:14:12;;;;;;;2.78;2.58;;;22.10;45.30;;;;;;5012746;28;20204;-71
2021/12/20 02:16:40;;;;;;;2.67;2.47;;;22.10;45.30;;;;;;5012791;28;20262;-71
2021/12/20 02:19:14;;;;;;;2.72;2.53;;;22.10;45.30;;;;;;5012481;28;20192;-71
2021/12/20 02:21:44;;;;;;;2.92;2.60;;;22.10;45.30;;;;;;5013087;28;20615;-71
2021/12/20 02:24:11;;;;;;;2.88;2.67;;;22.10;45.30;;;;;;5013014;28;20180;-71
2021/12/20 02:26:36;;;;;;;2.65;2.45;;;22.10;45.40;;;;;;4996405;28;20262;-71
2021/12/20 02:29:06;;;;;;;2.47;2.28;;;22.10;45.30;;;;;;5029025;28;20665;-71
2021/12/20 02:37:19;;;;;;;3.38;3.08;;;22.10;45.30;;;;;;5013533;28;20204;-72
2021/12/20 02:39:46;;;;;;;2.72;2.53;;;22.10;45.30;;;;;;5012515;28;20192;-72
2021/12/20 02:42:16;;;;;;;2.80;2.60;;;22.10;45.40;;;;;;5013728;28;20184;-71
2021/12/20 02:45:06;;;;;;;2.70;2.50;;;22.00;45.80;;;;;;5012048;28;20208;-71
2021/12/20 02:47:31;;;;;;;2.40;2.20;;;22.10;45.30;;;;;;5011809;28;20208;-71
2021/12/20 02:49:58;;;;;;;2.75;2.55;;;22.10;45.30;;;;;;5012253;28;20206;-72
2021/12/20 02:52:25;;;;;;;2.45;2.25;;;22.10;45.30;;;;;;5012453;28;20180;-71
2021/12/20 02:54:51;;;;;;;2.40;2.20;;;22.10;45.30;;;;;;5012256;28;20640;-71
2021/12/20 02:57:16;;;;;;;2.67;2.47;;;22.00;45.20;;;;;;5011991;28;20230;-71
2021/12/20 02:59:42;;;;;;;2.47;2.30;;;22.00;45.20;;;;;;5011851;28;20188;-71
2021/12/20 03:02:11;;;;;;;2.88;2.67;;;22.10;45.30;;;;;;5012155;28;20199;-71
2021/12/20 03:04:38;;;;;;;2.80;2.60;;;22.10;45.30;;;;;;5012143;28;20215;-70
2021/12/20 03:07:10;;;;;;;3.13;2.83;;;22.10;45.30;;;;;;5016678;28;20295;-71
2021/12/20 03:09:42;;;;;;;3.40;3.10;;;22.10;45.30;;;;;;4995579;28;20226;-71
2021/12/20 03:12:12;;;;;;;3.40;3.10;;;22.10;45.30;;;;;;5013011;28;20195;-70
2021/12/20 03:14:44;;;;;;;3.05;2.85;;;22.10;45.30;;;;;;5011782;28;20282;-70
2021/12/20 03:17:11;;;;;;;2.60;2.40;;;22.10;45.20;;;;;;5012710;28;20207;-71
2021/12/20 03:19:38;;;;;;;2.95;2.75;;;22.10;45.20;;;;;;5011598;28;20188;-71
2021/12/20 03:22:06;;;;;;;2.83;2.63;;;22.10;45.30;;;;;;5028255;28;20191;-71
2021/12/20 03:24:33;;;;;;;2.67;2.47;;;22.00;45.20;;;;;;5011844;28;20294;-71
2021/12/20 03:26:59;;;;;;;2.72;2.53;;;22.10;45.30;;;;;;5011171;28;20215;-71
2021/12/20 03:29:24;;;;;;;2.72;2.53;;;22.10;45.30;;;;;;4994804;28;20268;-72
2021/12/20 03:31:51;;;;;;;2.65;2.45;;;22.00;45.20;;;;;;5011556;28;20246;-71
2021/12/20 03:34:18;;;;;;;2.92;2.72;;;22.10;45.30;;;;;;5010859;28;20194;-70
2021/12/20 03:36:44;;;;;;;2.78;2.55;;;22.00;45.20;;;;;;5011222;28;20206;-71
2021/12/20 03:39:10;;;;;;;2.85;2.65;;;22.10;45.30;;;;;;5011137;28;20231;-71
2021/12/20 03:41:38;;;;;;;2.58;2.38;;;22.10;45.30;;;;;;5007595;28;20681;-71
2021/12/20 03:44:06;;;;;;;2.28;2.17;;;22.10;45.20;;;;;;5010985;28;20604;-71
2021/12/20 03:46:33;;;;;;;2.92;2.72;;;22.10;45.30;;;;;;5011395;28;20208;-71
2021/12/20 03:48:59;;;;;;;2.75;2.55;;;22.10;45.20;;;;;;5010958;28;20737;-71
2021/12/20 03:51:25;;;;;;;2.70;2.50;;;22.10;45.20;;;;;;5011119;28;20195;-71
2021/12/20 03:53:51;;;;;;;3.03;2.83;;;22.10;45.20;;;;;;5011224;28;20181;-70
2021/12/20 03:56:17;;;;;;;2.88;2.67;;;22.10;45.20;;;;;;5011245;28;20204;-71
2021/12/20 03:58:43;;;;;;;3.15;2.95;;;22.10;45.20;;;;;;5010659;28;20195;-70
2021/12/20 04:01:12;;;;;;;3.88;3.50;;;22.10;45.20;;;;;;5010885;28;20186;-70
2021/12/20 04:03:40;;;;;;;3.33;3.05;;;22.10;45.20;;;;;;5011127;28;20190;-71
2021/12/20 04:06:11;;;;;;;3.15;2.88;;;22.10;45.20;;;;;;5010679;28;20226;-70
2021/12/20 04:08:39;;;;;;;3.05;2.53;;;22.10;45.20;;;;;;5010555;28;20215;-71
2021/12/20 04:11:06;;;;;;;2.60;2.40;;;22.10;45.20;;;;;;4994566;28;20176;-70
2021/12/20 04:16:24;;;;;;;3.17;2.88;;;22.10;45.20;;;;;;5010303;28;20254;-72
2021/12/20 04:18:50;;;;;;;3.25;3.03;;;22.10;45.20;;;;;;4993537;28;20558;-72
2021/12/20 04:21:16;;;;;;;2.78;2.58;;;22.10;45.20;;;;;;5003762;28;20183;-72
2021/12/20 04:23:42;;;;;;;3.03;2.83;;;22.10;45.20;;;;;;4991652;28;20577;-71
2021/12/20 04:26:07;;;;;;;2.97;2.78;;;22.00;45.10;;;;;;4999180;28;20702;-71
2021/12/20 04:28:33;;;;;;;3.05;2.85;;;22.10;45.20;;;;;;5012151;28;20184;-71
2021/12/20 04:30:59;;;;;;;3.10;2.90;;;22.10;45.20;;;;;;5012479;28;20180;-71
2021/12/20 04:33:25;;;;;;;3.90;3.50;;;22.10;45.10;;;;;;4994873;28;20191;-71
2021/12/20 04:35:51;;;;;;;3.85;3.55;;;22.10;45.20;;;;;;4983277;28;20283;-73
2021/12/20 04:38:18;;;;;;;3.03;2.83;;;22.10;45.20;;;;;;4994589;28;20184;-71
2021/12/20 04:40:43;;;;;;;3.40;3.10;;;22.10;45.20;;;;;;4994671;28;20238;-71
2021/12/20 04:43:09;;;;;;;3.55;3.25;;;22.00;45.10;;;;;;4978781;28;20246;-71
2021/12/20 04:45:36;;;;;;;3.58;3.28;;;22.10;45.20;;;;;;4994413;28;20216;-72
2021/12/20 04:48:04;;;;;;;3.90;3.50;;;22.00;45.10;;;;;;4978319;28;20299;-71
2021/12/20 04:50:30;;;;;;;3.60;3.30;;;22.10;45.20;;;;;;5012186;28;20184;-71
2021/12/20 04:52:58;;;;;;;3.53;3.22;;;22.10;45.20;;;;;;4994495;28;20720;-71
2021/12/20 04:55:25;;;;;;;3.05;2.85;;;22.10;45.10;;;;;;4994380;28;20215;-71
2021/12/20 04:57:52;;;;;;;2.78;2.58;;;22.00;45.10;;;;;;4993809;28;20188;-71
2021/12/20 05:00:23;;;;;;;2.78;2.58;;;22.00;45.10;;;;;;4994550;28;20187;-71
2021/12/20 05:02:49;;;;;;;3.10;2.90;;;22.10;45.20;;;;;;4978422;28;20197;-73
2021/12/20 05:05:16;;;;;;;3.40;3.10;;;22.10;45.20;;;;;;5011832;28;20203;-72
2021/12/20 05:07:44;;;;;;;3.10;2.90;;;22.00;45.10;;;;;;5010260;28;20184;-71
2021/12/20 05:10:13;;;;;;;3.22;2.95;;;22.10;45.20;;;;;;4994432;28;20192;-71
2021/12/20 05:12:40;;;;;;;3.10;2.90;;;22.00;45.70;;;;;;4978343;28;20246;-71
2021/12/20 05:15:08;;;;;;;3.17;2.88;;;22.00;45.10;;;;;;4981001;28;20319;-72
2021/12/20 05:17:35;;;;;;;3.50;3.20;;;22.10;45.10;;;;;;4992033;28;20213;-71
2021/12/20 05:20:04;;;;;;;3.50;3.20;;;22.10;45.10;;;;;;4958866;28;20199;-71
2021/12/20 05:22:29;;;;;;;3.50;3.20;;;22.10;45.10;;;;;;4968117;28;20191;-71
2021/12/20 05:24:55;;;;;;;2.88;2.67;;;22.00;45.00;;;;;;4978016;28;20223;-72
2021/12/20 05:27:21;;;;;;;3.70;3.40;;;22.00;45.00;;;;;;4994255;28;20230;-70
2021/12/20 05:29:48;;;;;;;3.80;3.50;;;22.10;45.10;;;;;;4994265;28;20255;-71
2021/12/20 05:32:14;;;;;;;4.00;3.70;;;22.10;45.10;;;;;;4995028;28;20230;-72
2021/12/20 05:34:39;;;;;;;3.78;3.47;;;22.10;45.10;;;;;;4975208;28;20209;-72
2021/12/20 05:37:05;;;;;;;3.90;3.60;;;22.10;45.10;;;;;;4975034;28;20193;-72
2021/12/20 05:39:31;;;;;;;3.75;3.45;;;22.10;45.10;;;;;;4975605;28;20232;-72
2021/12/20 05:41:57;;;;;;;3.95;3.65;;;22.00;45.00;;;;;;5012229;28;20173;-72
2021/12/20 05:44:22;;;;;;;3.58;3.28;;;22.00;45.00;;;;;;4994844;28;20238;-73
2021/12/20 05:46:49;;;;;;;3.53;3.22;;;22.00;45.00;;;;;;4994504;28;20195;-72
2021/12/20 05:49:14;;;;;;;3.35;3.05;;;22.00;45.00;;;;;;4994531;28;20188;-72
2021/12/20 05:51:40;;;;;;;3.78;3.47;;;22.00;45.10;;;;;;4994083;28;20196;-72
2021/12/20 05:54:06;;;;;;;3.50;3.20;;;22.00;45.10;;;;;;5011970;28;20228;-72
2021/12/20 05:56:31;;;;;;;3.83;3.53;;;22.10;45.20;;;;;;4978306;28;20184;-73
2021/12/20 05:58:57;;;;;;;4.03;3.65;;;22.00;45.10;;;;;;5011687;28;20184;-72
2021/12/20 06:01:23;;;;;;;3.47;3.17;;;22.00;45.10;;;;;;4994544;28;20184;-73
2021/12/20 06:03:49;;;;;;;3.72;3.42;;;22.00;45.10;;;;;;4976942;28;20212;-71
2021/12/20 06:06:15;;;;;;;3.67;3.38;;;22.00;45.10;;;;;;4987399;28;20350;-71
2021/12/20 06:08:41;;;;;;;3.55;3.25;;;22.00;45.10;;;;;;4993831;28;20235;-71
2021/12/20 06:11:06;;;;;;;3.60;3.30;;;22.00;45.10;;;;;;4996070;28;20278;-72
2021/12/20 06:13:32;;;;;;;3.42;3.13;;;22.00;45.10;;;;;;5013688;28;20679;-71
2021/12/20 06:15:58;;;;;;;4.50;3.40;;;22.00;45.10;;;;;;4979981;28;20308;-72
2021/12/20 06:18:24;;;;;;;3.60;3.35;;;22.00;45.10;;;;;;4980969;28;20199;-72
2021/12/20 06:20:49;;;;;;;4.05;3.75;;;22.00;45.10;;;;;;4980382;28;20184;-72
2021/12/20 06:23:15;;;;;;;3.53;3.22;;;22.00;45.00;;;;;;4996133;28;20191;-71
2021/12/20 06:25:42;;;;;;;3.92;3.63;;;22.00;45.10;;;;;;4997049;28;20263;-72
2021/12/20 06:28:08;;;;;;;3.95;3.65;;;22.10;45.20;;;;;;4996736;28;20218;-71
2021/12/20 06:30:33;;;;;;;4.10;3.80;;;22.00;45.00;;;;;;4980636;28;20212;-71
2021/12/20 06:32:59;;;;;;;3.88;3.58;;;22.00;45.70;;;;;;4980837;28;20790;-71
2021/12/20 06:35:25;;;;;;;3.65;3.35;;;22.00;45.10;;;;;;4996729;28;20211;-71
2021/12/20 06:37:59;;;;;;;4.25;3.95;;;22.00;45.10;;;;;;4996842;28;20180;-71
2021/12/20 06:40:28;;;;;;;3.78;3.47;;;22.00;45.10;;;;;;5013246;28;20188;-71
2021/12/20 06:42:54;;;;;;;3.35;2.90;;;22.00;45.10;;;;;;5014316;28;20184;-71
2021/12/20 06:45:20;;;;;;;3.70;3.40;;;22.00;45.10;;;;;;4996478;28;20247;-71
2021/12/20 06:47:46;;;;;;;3.55;3.25;;;22.10;45.20;;;;;;4980312;28;20239;-71
2021/12/20 06:50:12;;;;;;;3.15;2.90;;;22.00;45.10;;;;;;5014195;28;20196;-72
2021/12/20 06:52:38;;;;;;;3.67;3.38;;;22.00;45.10;;;;;;4984907;28;20267;-71
2021/12/20 06:55:04;;;;;;;3.72;3.42;;;22.00;45.20;;;;;;4983818;28;20370;-71
2021/12/20 06:57:30;;;;;;;3.80;3.50;;;22.00;45.10;;;;;;4970829;28;20189;-71
2021/12/20 06:59:56;;;;;;;3.83;3.53;;;22.00;45.20;;;;;;4984896;28;20239;-71
2021/12/20 07:02:23;;;;;;;4.15;3.75;;;22.00;45.10;;;;;;4975680;28;20196;-72
2021/12/20 07:04:49;;;;;;;3.70;3.40;;;22.00;45.10;;;;;;4996233;28;20215;-73
2021/12/20 07:07:15;;;;;;;3.63;3.33;;;22.00;45.10;;;;;;5010587;28;20184;-72
2021/12/20 07:09:40;;;;;;;4.03;3.70;;;22.00;45.20;;;;;;4969996;28;20184;-71
2021/12/20 07:12:07;;;;;;;3.92;3.22;;;22.00;45.10;;;;;;4982964;28;20196;-71
2021/12/20 07:14:33;;;;;;;3.90;3.60;;;22.10;45.20;;;;;;4976824;28;20208;-71
2021/12/20 07:16:59;;;;;;;4.18;3.88;;;22.00;45.10;;;;;;4963125;28;20199;-71
2021/12/20 07:19:25;;;;;;;3.67;3.38;;;22.00;45.10;;;;;;4977234;28;20199;-73
2021/12/20 07:21:50;;;;;;;4.05;3.75;;;22.00;45.10;;;;;;4976332;28;20228;-71
2021/12/20 07:24:16;;;;;;;4.20;3.80;;;22.00;45.10;;;;;;4960185;28;20215;-72
2021/12/20 07:26:43;;;;;;;4.07;3.78;;;22.00;45.10;;;;;;4976845;28;20189;-72
2021/12/20 07:29:09;;;;;;;4.03;3.72;;;22.00;45.10;;;;;;4976288;28;20185;-71
2021/12/20 07:31:36;;;;;;;4.05;3.75;;;22.00;45.10;;;;;;4979927;28;20189;-71
2021/12/20 07:34:02;;;;;;;3.78;3.47;;;22.00;45.10;;;;;;4963078;28;20201;-71
2021/12/20 07:36:28;;;;;;;3.45;3.15;;;22.00;45.10;;;;;;4976446;28;20199;-71
2021/12/20 07:38:55;;;;;;;3.80;3.45;;;22.00;45.10;;;;;;4975105;28;20189;-72
2021/12/20 07:41:23;;;;;;;3.88;3.58;;;22.00;45.10;;;;;;4993881;28;20189;-71
2021/12/20 07:43:50;;;;;;;3.97;3.67;;;22.00;45.10;;;;;;4976098;28;20664;-71
2021/12/20 07:46:18;;;;;;;3.22;2.92;;;22.00;45.20;;;;;;4976058;28;20213;-71
2021/12/20 07:48:44;;;;;;;3.60;3.30;;;22.00;45.20;;;;;;4976155;28;20185;-73
2021/12/20 07:51:10;;;;;;;3.90;3.60;;;22.00;45.20;;;;;;4976199;28;20277;-72
2021/12/20 07:53:36;;;;;;;3.75;3.42;;;22.00;45.20;;;;;;4976143;28;20201;-71
2021/12/20 07:56:04;;;;;;;3.58;3.28;;;22.00;45.20;;;;;;4965765;28;20189;-73
2021/12/20 07:58:30;;;;;;;3.58;3.28;;;22.00;45.20;;;;;;4959749;28;20353;-72
2021/12/20 08:00:58;;;;;;;4.25;3.60;;;22.00;45.20;;;;;;4976901;28;20184;-73
2021/12/20 08:03:23;;;;;;;3.80;3.50;;;22.00;45.10;;;;;;5012991;28;20255;-72
2021/12/20 08:05:49;;;;;;;3.72;3.42;;;22.00;45.20;;;;;;4994920;28;20303;-72
2021/12/20 08:08:16;;;;;;;3.35;3.10;;;22.00;45.10;;;;;;4978765;28;20562;-71
2021/12/20 08:10:42;;;;;;;3.65;3.35;;;22.00;45.10;;;;;;4995182;28;20183;-73
2021/12/20 08:13:10;;;;;;;4.22;3.85;;;22.00;45.10;;;;;;5011401;28;20188;-73
2021/12/20 08:15:36;;;;;;;4.03;3.60;;;22.00;45.10;;;;;;5011430;28;20706;-72
2021/12/20 08:18:02;;;;;;;4.80;4.38;;;22.00;45.10;;;;;;4994719;28;20203;-73
2021/12/20 08:20:28;;;;;;;3.78;3.40;;;22.00;45.10;;;;;;4994667;28;20180;-73
2021/12/20 08:22:54;;;;;;;4.68;3.85;;;22.00;45.10;;;;;;4985794;28;20196;-72
2021/12/20 08:25:20;;;;;;;4.82;3.83;;;22.00;45.10;;;;;;4967051;28;20311;-73
2021/12/20 08:27:47;;;;;;;4.85;4.35;;;22.00;45.10;;;;;;5008784;28;20177;-72
2021/12/20 08:30:13;;;;;;;4.40;3.90;;;22.00;45.10;;;;;;4983728;28;20177;-72
2021/12/20 08:32:39;;;;;;;4.78;4.28;;;22.00;45.10;;;;;;4984701;28;20199;-72
2021/12/20 08:35:09;;;;;;;4.68;4.00;;;22.00;45.10;;;;;;4983115;28;20705;-72
2021/12/20 08:37:35;;;;;;;4.68;3.95;;;22.00;45.10;;;;;;4985131;28;20184;-72
2021/12/20 08:40:08;;;;;;;4.43;3.53;;;22.00;45.10;;;;;;4984607;28;20183;-72
2021/12/20 08:42:34;;;;;;;4.20;3.80;;;22.00;45.10;;;;;;4986427;28;20211;-72
2021/12/20 08:44:59;;;;;;;5.10;4.18;;;22.00;45.10;;;;;;4984469;28;20574;-72
2021/12/20 08:47:25;;;;;;;4.97;3.50;;;22.10;45.20;;;;;;4969129;28;20231;-72
2021/12/20 08:49:51;;;;;;;4.45;3.85;;;22.10;45.20;;;;;;4967190;28;20181;-71
2021/12/20 08:52:17;;;;;;;4.25;3.60;;;22.10;45.10;;;;;;5003633;28;20184;-72
2021/12/20 08:54:43;;;;;;;3.67;3.35;;;22.00;45.10;;;;;;4984004;28;20203;-72
2021/12/20 08:57:09;;;;;;;4.72;3.80;;;22.10;45.20;;;;;;4985439;28;20674;-73
2021/12/20 08:59:36;;;;;;;4.07;3.67;;;22.10;45.20;;;;;;5000829;28;20181;-71
2021/12/20 09:02:04;;;;;;;4.47;4.07;;;22.10;45.20;;;;;;4986209;28;20199;-72
2021/12/20 09:04:29;;;;;;;4.22;3.83;;;22.10;45.10;;;;;;4983227;28;20243;-71
2021/12/20 09:06:55;;;;;;;3.95;3.60;;;22.10;45.10;;;;;;4985969;28;20185;-71
2021/12/20 09:09:21;;;;;;;4.70;4.15;;;22.10;45.10;;;;;;4969623;28;20662;-73
2021/12/20 09:11:47;;;;;;;4.60;4.18;;;22.10;45.10;;;;;;4985952;28;20635;-73
2021/12/20 09:14:14;;;;;;;6.07;4.05;;;22.10;45.10;;;;;;4985026;28;20215;-73
2021/12/20 09:16:41;;;;;;;4.10;3.70;;;22.10;45.00;;;;;;5000845;28;20177;-72
2021/12/20 09:19:07;;;;;;;4.40;4.00;;;22.10;45.00;;;;;;4983024;28;20195;-72
2021/12/20 09:21:34;;;;;;;3.90;3.50;;;22.10;45.00;;;;;;4983352;28;20270;-72
2021/12/20 09:24:03;;;;;;;3.65;3.35;;;22.10;45.10;;;;;;4968050;28;20196;-71
2021/12/20 09:26:29;;;;;;;4.07;3.72;;;22.10;45.10;;;;;;4980094;28;20208;-71
2021/12/20 09:28:54;;;;;;;3.83;3.50;;;22.10;45.10;;;;;;4984697;28;20178;-71
2021/12/20 09:31:20;;;;;;;3.50;3.20;;;22.10;45.10;;;;;;5006481;28;20186;-71
2021/12/20 09:33:46;;;;;;;3.80;3.50;;;22.10;45.20;;;;;;4977981;28;20184;-71
2021/12/20 09:36:12;;;;;;;3.80;3.17;;;22.10;45.10;;;;;;4978265;28;20267;-72
2021/12/20 09:38:37;;;;;;;3.90;3.50;;;22.10;45.10;;;;;;4994121;28;20196;-73
2021/12/20 09:43:36;;;;;;;3.60;3.30;;;22.10;45.00;;;;;;5011631;28;20192;-72
2021/12/20 09:46:03;;;;;;;4.22;3.25;;;22.10;45.10;;;;;;4981237;28;20211;-71
2021/12/20 09:48:28;;;;;;;3.42;3.13;;;22.10;45.00;;;;;;4997548;28;20262;-72
2021/12/20 09:50:57;;;;;;;4.43;3.50;;;22.10;45.10;;;;;;4998271;28;20243;-72
2021/12/20 09:53:23;;;;;;;3.42;3.13;;;22.10;45.10;;;;;;4997700;28;20176;-71
2021/12/20 09:55:51;;;;;;;3.40;3.03;;;22.10;45.10;;;;;;4997497;28;20212;-72
2021/12/20 09:58:21;;;;;;;3.58;3.28;;;22.10;45.10;;;;;;5015151;28;20267;-73
2021/12/20 10:00:48;;;;;;;3.47;3.17;;;22.10;45.10;;;;;;4981618;28;20192;-72
2021/12/20 10:03:19;;;;;;;3.50;3.20;;;22.10;45.30;;;;;;4997522;28;20223;-71
2021/12/20 10:05:45;;;;;;;4.53;3.50;;;22.10;45.30;;;;;;4997556;28;20247;-71
2021/12/20 10:08:16;;;;;;;3.58;2.85;;;22.10;45.70;;;;;;4981183;28;20238;-72
2021/12/20 10:10:50;;;;;;;4.57;2.90;;;22.00;46.00;;;;;;4997458;28;20184;-72
2021/12/20 10:13:24;;;;;;;4.35;3.00;;;21.90;46.00;;;;;;4997174;28;20188;-72
2021/12/20 10:15:50;;;;;;;3.03;2.72;;;22.00;46.30;;;;;;5035025;23;20258;-70
2021/12/20 10:18:17;;;;;;;4.25;3.60;;;22.00;46.30;;;;;;5016783;28;20261;-70
2021/12/20 10:20:51;;;;;;;4.38;2.92;;;22.00;46.50;;;;;;5017345;28;20264;-70
2021/12/20 10:23:21;;;;;;;3.65;2.53;;;22.10;46.60;;;;;;5017371;28;20193;-71
2021/12/20 10:25:54;;;;;;;4.15;2.72;;;22.00;46.70;;;;;;5020222;28;20242;-71
2021/12/20 10:28:25;;;;;;;4.10;2.78;;;22.00;46.70;;;;;;5016957;28;20183;-70
2021/12/20 10:31:08;;;;;;;3.35;2.70;;;22.10;46.90;;;;;;5017229;28;20182;-71
2021/12/20 10:33:35;;;;;;;4.00;2.83;;;22.10;47.10;;;;;;4996358;28;20204;-70
2021/12/20 10:36:06;;;;;;;3.20;2.90;;;22.10;47.20;;;;;;5013504;28;20291;-70
2021/12/20 10:38:40;;;;;;;4.22;2.40;;;22.10;47.10;;;;;;4978018;28;20194;-70
2021/12/20 10:41:29;;;;;;;2.83;2.30;;;22.10;47.20;;;;;;4977963;28;20185;-71
2021/12/20 10:44:00;;;;;;;4.05;2.78;;;22.20;47.30;;;;;;4994195;28;20209;-71
2021/12/20 10:46:35;;;;;;;4.00;2.45;;;22.20;47.20;;;;;;4977816;28;20228;-73
2021/12/20 10:49:10;;;;;;;7.45;2.75;;;22.20;47.30;;;;;;4997343;28;20198;-71
2021/12/20 10:51:44;;;;;;;4.00;2.53;;;22.20;47.60;;;;;;4977623;28;20220;-71
2021/12/20 10:54:15;;;;;;;3.78;2.60;;;22.20;47.40;;;;;;4993726;28;20180;-71
2021/12/20 10:57:05;;;;;;;4.85;2.28;;;22.20;47.60;;;;;;4994374;28;20187;-71
2021/12/20 10:59:37;;;;;;;4.07;2.53;;;22.20;47.60;;;;;;4994832;28;20169;-71
2021/12/20 11:04:58;;;;;;;5.95;2.78;;;22.20;47.80;;;;;;4977355;28;20231;-71
2021/12/20 11:10:06;;;;;;;4.38;2.20;;;22.20;48.00;;;;;;5016407;28;20186;-70
2021/12/20 11:12:33;;;;;;;7.13;2.53;;;22.20;48.10;;;;;;5000538;28;20190;-71
2021/12/20 11:15:12;;;;;;;4.07;2.72;;;22.30;48.30;;;;;;5032828;28;20282;-71
2021/12/20 11:17:45;;;;;;;5.28;2.30;;;22.20;48.30;;;;;;4999852;28;20277;-70
2021/12/20 11:20:18;;;;;;;3.95;2.72;;;22.20;48.30;;;;;;5014702;28;20193;-71
2021/12/20 11:22:44;;;;;;;4.82;2.58;;;22.20;48.20;;;;;;4977212;28;20179;-71
2021/12/20 11:25:14;;;;;;;4.10;2.33;;;22.20;48.30;;;;;;4993486;28;20665;-71
2021/12/20 11:27:46;;;;;;;3.10;2.53;;;22.30;48.60;;;;;;4994833;28;20188;-71
2021/12/20 11:30:18;;;;;;;3.85;2.67;;;22.20;48.70;;;;;;4996646;28;20164;-71
2021/12/20 11:32:47;;;;;;;3.58;2.30;;;22.30;48.90;;;;;;4996511;28;20184;-70
2021/12/20 11:35:15;;;;;;;2.60;2.20;;;22.30;48.90;;;;;;4981405;28;20214;-70
2021/12/20 11:37:42;;;;;;;4.70;2.35;;;22.30;49.00;;;;;;5007496;28;20195;-72
2021/12/20 11:40:11;;;;;;;4.47;2.53;;;22.30;49.10;;;;;;5016060;28;20171;-72
2021/12/20 11:42:37;;;;;;;6.45;2.67;;;22.30;49.20;;;;;;5033592;28;20170;-72
2021/12/20 11:45:08;;;;;;;4.65;2.35;;;22.30;49.20;;;;;;5015750;28;20207;-73
2021/12/20 11:47:49;;;;;;;2.53;2.30;;;22.30;49.40;;;;;;5003764;28;20176;-72
2021/12/20 11:50:19;;;;;;;4.45;2.47;;;22.30;49.70;;;;;;5002545;28;20184;-73
2021/12/20 11:52:48;;;;;;;6.47;3.05;;;22.30;50.00;;;;;;5007503;28;20183;-71
2021/12/20 11:55:30;;;;;;;3.65;2.60;;;22.30;49.90;;;;;;5031882;28;20298;-70
2021/12/20 11:58:00;;;;;;;6.03;2.33;;;22.30;50.10;;;;;;5015481;28;20229;-71
2021/12/20 12:00:32;;;;;;;7.05;2.80;;;22.30;50.10;;;;;;5015488;28;20190;-70
2021/12/20 12:03:16;;;;;;;4.95;2.70;;;22.30;50.10;;;;;;5000073;28;20211;-71
2021/12/20 12:05:53;;;;;;;4.72;2.35;;;22.30;50.20;;;;;;4982035;28;20207;-71
2021/12/20 12:08:28;;;;;;;4.55;2.33;;;22.30;50.40;;;;;;5020231;28;20666;-71
2021/12/20 12:11:00;;;;;;;7.65;2.47;;;22.30;50.40;;;;;;5030642;28;20236;-72
2021/12/20 12:13:35;;;;;;;5.80;2.60;;;22.30;50.50;;;;;;4990700;28;20212;-71
2021/12/20 12:16:04;;;;;;;3.47;2.33;;;22.30;50.60;;;;;;5004111;28;20241;-71
2021/12/20 12:18:51;;;;;;;7.35;2.97;;;22.30;50.80;;;;;;4976091;28;20185;-70
2021/12/20 12:21:32;;;;;;;5.97;2.80;;;22.30;50.70;;;;;;4975053;28;20669;-69
2021/12/20 12:24:10;;;;;;;4.47;2.40;;;22.30;50.80;;;;;;5012106;28;20195;-72
2021/12/20 12:26:40;;;;;;;6.28;2.17;;;22.30;50.80;;;;;;4995745;28;20220;-71
2021/12/20 12:29:15;;;;;;;2.90;2.50;;;22.30;51.00;;;;;;5011552;28;20180;-71
2021/12/20 12:32:01;;;;;;;2.78;2.20;;;22.30;51.00;;;;;;4995682;28;20636;-71
2021/12/20 12:34:42;;;;;;;3.83;2.75;;;22.40;51.10;;;;;;4995669;28;20208;-72
2021/12/20 12:37:32;;;;;;;6.30;2.88;;;22.30;51.00;;;;;;5012949;28;20165;-71
2021/12/20 12:40:25;;;;;;;3.83;2.83;;;22.30;51.20;;;;;;4995299;28;20190;-71
2021/12/20 12:42:57;;;;;;;7.50;2.50;;;22.30;51.10;;;;;;4995285;28;20184;-71
2021/12/20 12:45:53;;;;;;;4.97;2.40;;;22.30;51.20;;;;;;4995606;28;20247;-70
2021/12/20 12:48:40;;;;;;;3.65;2.30;;;22.30;51.10;;;;;;4995264;28;20607;-71
2021/12/20 12:51:12;;;;;;;4.72;2.60;;;22.30;51.20;;;;;;4995423;28;20265;-69
2021/12/20 12:53:40;;;;;;;5.38;2.65;;;22.30;51.20;;;;;;5027959;28;20191;-71
2021/12/20 12:56:27;;;;;;;5.07;2.70;;;22.30;51.20;;;;;;4995083;28;20203;-71
2021/12/20 12:59:11;;;;;;;5.70;2.60;;;22.30;51.30;;;;;;5011185;28;20278;-72
2021/12/20 13:01:54;;;;;;;6.88;2.42;;;22.30;51.20;;;;;;5012709;28;20173;-71
2021/12/20 13:04:20;;;;;;;6.13;2.30;;;22.30;51.30;;;;;;5012865;28;20215;-71
2021/12/20 13:06:46;;;;;;;3.85;1.80;;;22.30;51.30;;;;;;4995242;28;20600;-71
2021/12/20 13:09:12;;;;;;;3.40;1.98;;;22.30;51.20;;;;;;4995066;28;20651;-72
2021/12/20 13:11:37;;;;;;;7.45;2.50;;;22.30;51.30;;;;;;4995079;28;20180;-70
2021/12/20 13:14:10;;;;;;;3.03;2.20;;;22.40;51.40;;;;;;4995113;28;20234;-71
2021/12/20 13:16:38;;;;;;;4.28;2.40;;;22.30;51.20;;;;;;4994828;28;20196;-70
2021/12/20 13:19:05;;;;;;;4.75;2.50;;;22.40;51.30;;;;;;4994581;28;20282;-70